createdAt,value
2018-08-31T00:01:03.016Z,99.90
2018-08-31T00:03:43.804Z,99.90
2018-08-31T00:06:23.796Z,99.90
2018-08-31T00:09:05.553Z,99.90
2018-08-31T00:11:46.014Z,99.90
2018-08-31T00:14:14.814Z,99.90
2018-08-31T00:16:43.922Z,99.90
2018-08-31T00:19:12.373Z,99.90
2018-08-31T00:21:40.977Z,99.90
2018-08-31T00:24:20.925Z,99.90
2018-08-31T00:27:00.855Z,99.90
2018-08-31T00:29:42.469Z,99.90
2018-08-31T00:34:33.845Z,99.90
2018-08-31T00:44:28.409Z,99.90
2018-08-31T00:46:57.215Z,99.90
2018-08-31T00:49:25.666Z,99.90
2018-08-31T00:51:55.276Z,99.90
2018-08-31T00:54:23.757Z,99.90
2018-08-31T00:56:52.555Z,99.90
2018-08-31T00:59:21.017Z,99.90
2018-08-31T01:01:49.815Z,99.90
2018-08-31T01:04:18.569Z,99.90
2018-08-31T01:06:47.398Z,99.90
2018-08-31T01:09:15.865Z,99.90
2018-08-31T01:11:44.312Z,99.90
2018-08-31T01:14:12.763Z,99.90
2018-08-31T01:16:41.223Z,99.90
2018-08-31T01:19:10.056Z,99.90
2018-08-31T01:21:38.489Z,99.90
2018-08-31T01:24:06.957Z,99.90
2018-08-31T01:26:35.425Z,99.90
2018-08-31T01:29:03.891Z,99.90
2018-08-31T01:31:33.073Z,99.90
2018-08-31T01:34:01.886Z,99.90
2018-08-31T01:36:30.337Z,99.90
2018-08-31T01:38:59.140Z,99.90
2018-08-31T01:41:28.252Z,99.90
2018-08-31T01:43:56.730Z,99.90
2018-08-31T01:46:25.475Z,99.90
2018-08-31T01:48:53.956Z,99.90
2018-08-31T01:51:22.431Z,99.90
2018-08-31T01:53:50.907Z,99.90
2018-08-31T01:56:19.774Z,99.90
2018-08-31T01:58:48.896Z,99.90
2018-08-31T02:01:17.356Z,99.90
2018-08-31T02:03:45.832Z,99.90
2018-08-31T02:06:14.633Z,99.90
2018-08-31T02:08:48.497Z,99.90
2018-08-31T02:11:16.982Z,99.90
2018-08-31T02:13:45.778Z,99.90
2018-08-31T02:16:14.249Z,99.90
2018-08-31T02:18:42.729Z,99.90
2018-08-31T02:21:11.240Z,99.90
2018-08-31T02:23:40.008Z,99.90
2018-08-31T02:26:09.180Z,99.90
2018-08-31T02:28:37.682Z,99.90
2018-08-31T02:31:06.873Z,99.90
2018-08-31T02:33:35.379Z,99.90
2018-08-31T02:36:04.136Z,99.90
2018-08-31T02:38:32.633Z,99.90
2018-08-31T02:41:01.437Z,99.90
2018-08-31T02:43:30.431Z,99.90
2018-08-31T02:45:59.247Z,99.90
2018-08-31T02:48:28.096Z,99.90
2018-08-31T02:50:56.713Z,99.90
2018-08-31T02:53:25.198Z,99.90
2018-08-31T02:55:53.978Z,99.90
2018-08-31T02:58:22.423Z,99.90
2018-08-31T03:00:50.876Z,99.90
2018-08-31T03:03:19.793Z,99.90
2018-08-31T03:05:48.684Z,99.90
2018-08-31T03:08:17.880Z,99.90
2018-08-31T03:10:46.663Z,99.90
2018-08-31T03:13:15.116Z,99.90
2018-08-31T03:15:43.574Z,99.90
2018-08-31T03:18:12.740Z,99.90
2018-08-31T03:20:41.525Z,99.90
2018-08-31T03:23:10.389Z,99.90
2018-08-31T03:25:38.842Z,99.90
2018-08-31T03:28:07.630Z,99.90
2018-08-31T03:30:36.096Z,99.90
2018-08-31T03:33:04.693Z,99.90
2018-08-31T03:35:33.502Z,99.90
2018-08-31T03:38:02.444Z,99.90
2018-08-31T03:40:31.241Z,99.90
2018-08-31T03:43:00.013Z,99.90
2018-08-31T03:45:28.825Z,99.90
2018-08-31T03:47:57.589Z,99.90
2018-08-31T03:50:26.397Z,99.90
2018-08-31T03:52:55.694Z,99.90
2018-08-31T03:55:24.186Z,99.90
2018-08-31T03:57:52.956Z,99.90
2018-08-31T04:00:21.471Z,99.90
2018-08-31T04:02:50.001Z,99.90
2018-08-31T04:05:19.137Z,99.90
2018-08-31T04:07:47.969Z,99.90
2018-08-31T04:10:17.124Z,99.90
2018-08-31T04:12:45.927Z,99.90
2018-08-31T04:15:15.089Z,99.90
2018-08-31T04:17:43.886Z,99.90
2018-08-31T04:20:12.677Z,99.90
2018-08-31T04:22:42.754Z,99.90
2018-08-31T04:25:11.540Z,99.90
2018-08-31T04:27:39.983Z,99.90
2018-08-31T04:30:08.756Z,99.90
2018-08-31T04:32:37.578Z,99.90
2018-08-31T04:35:06.510Z,99.90
2018-08-31T04:37:35.386Z,99.90
2018-08-31T04:40:06.124Z,99.90
2018-08-31T04:42:35.229Z,99.90
2018-08-31T04:45:04.002Z,99.90
2018-08-31T04:47:32.444Z,99.90
2018-08-31T04:50:01.657Z,99.90
2018-08-31T04:52:30.461Z,99.90
2018-08-31T04:54:58.892Z,99.90
2018-08-31T04:57:27.701Z,99.90
2018-08-31T04:59:57.180Z,99.90
2018-08-31T05:02:25.964Z,99.90
2018-08-31T05:04:55.143Z,99.90
2018-08-31T05:07:24.459Z,99.90
2018-08-31T05:09:53.740Z,99.90
2018-08-31T05:12:22.934Z,99.90
2018-08-31T05:17:43.714Z,99.90
2018-08-31T05:20:12.592Z,99.90
2018-08-31T05:24:06.996Z,99.90
2018-08-31T05:26:36.111Z,99.90
2018-08-31T05:29:04.998Z,99.90
2018-08-31T05:31:34.362Z,99.90
2018-08-31T05:34:04.391Z,99.90
2018-08-31T05:36:33.285Z,99.90
2018-08-31T05:39:01.938Z,99.90
2018-08-31T05:41:30.758Z,99.90
2018-08-31T05:44:02.247Z,99.90
2018-08-31T05:46:31.060Z,99.90
2018-08-31T05:48:59.486Z,99.90
2018-08-31T05:51:28.305Z,99.90
2018-08-31T05:53:56.788Z,99.90
2018-08-31T05:56:25.927Z,99.90
2018-08-31T05:58:54.413Z,99.90
2018-08-31T06:01:23.188Z,99.90
2018-08-31T06:03:51.983Z,99.90
2018-08-31T06:06:21.353Z,99.90
2018-08-31T06:08:49.792Z,99.90
2018-08-31T06:11:18.565Z,99.90
2018-08-31T06:13:47.275Z,99.90
2018-08-31T06:16:15.757Z,99.90
2018-08-31T06:18:44.299Z,99.90
2018-08-31T06:21:15.455Z,99.90
2018-08-31T06:23:43.910Z,99.90
2018-08-31T06:26:12.711Z,99.90
2018-08-31T06:28:41.161Z,99.90
2018-08-31T06:31:09.939Z,99.90
2018-08-31T06:33:38.376Z,99.90
2018-08-31T06:36:07.968Z,99.90
2018-08-31T06:38:36.413Z,99.90
2018-08-31T06:41:05.537Z,99.90
2018-08-31T06:43:33.987Z,99.90
2018-08-31T06:46:03.103Z,99.90
2018-08-31T06:48:31.541Z,99.90
2018-08-31T06:51:01.042Z,99.90
2018-08-31T06:53:29.499Z,99.90
2018-08-31T06:55:58.269Z,99.90
2018-08-31T06:58:27.073Z,99.90
2018-08-31T07:00:55.874Z,99.90
2018-08-31T07:03:24.355Z,99.90
2018-08-31T07:05:53.481Z,99.90
2018-08-31T07:08:22.266Z,99.90
2018-08-31T07:10:51.028Z,99.90
2018-08-31T07:13:19.832Z,99.90
2018-08-31T07:15:49.559Z,99.90
2018-08-31T07:18:17.984Z,99.90
2018-08-31T07:20:46.803Z,99.90
2018-08-31T07:23:15.593Z,99.90
2018-08-31T07:25:44.734Z,99.90
2018-08-31T07:28:13.805Z,99.90
2018-08-31T07:30:42.650Z,99.90
2018-08-31T07:33:11.440Z,99.90
2018-08-31T07:35:39.929Z,99.90
2018-08-31T07:38:08.530Z,99.90
2018-08-31T07:40:37.400Z,99.90
2018-08-31T07:43:06.905Z,99.90
2018-08-31T07:45:35.680Z,99.90
2018-08-31T07:48:04.812Z,99.90
2018-08-31T07:50:34.647Z,99.90
2018-08-31T07:53:03.431Z,99.90
2018-08-31T07:55:32.205Z,99.90
2018-08-31T07:58:01.928Z,99.90
2018-08-31T08:00:30.379Z,99.90
2018-08-31T08:02:58.921Z,99.90
2018-08-31T08:05:28.825Z,99.90
2018-08-31T08:07:57.708Z,99.90
2018-08-31T08:10:26.493Z,99.90
2018-08-31T08:12:55.271Z,99.90
2018-08-31T08:15:24.465Z,99.90
2018-08-31T08:17:53.561Z,99.60
2018-08-31T08:20:22.453Z,99.40
2018-08-31T08:22:51.820Z,99.90
2018-08-31T08:25:20.633Z,99.60
2018-08-31T08:27:49.763Z,98.60
2018-08-31T08:30:18.810Z,98.20
2018-08-31T08:32:47.275Z,98.90
2018-08-31T08:35:16.066Z,98.60
2018-08-31T08:37:44.901Z,98.80
2018-08-31T08:40:13.341Z,98.00
2018-08-31T08:42:42.118Z,98.30
2018-08-31T08:45:11.215Z,98.40
2018-08-31T08:47:40.354Z,97.70
2018-08-31T08:50:08.815Z,98.00
2018-08-31T08:52:37.917Z,98.10
2018-08-31T08:55:06.542Z,98.20
2018-08-31T08:57:34.982Z,97.40
2018-08-31T09:00:03.801Z,98.10
2018-08-31T09:02:32.237Z,97.70
2018-08-31T09:05:01.044Z,98.00
2018-08-31T09:07:29.826Z,98.30
2018-08-31T09:09:58.524Z,97.70
2018-08-31T09:12:27.403Z,97.50
2018-08-31T09:14:56.254Z,96.80
2018-08-31T09:17:25.029Z,96.80
2018-08-31T09:19:53.809Z,96.70
2018-08-31T09:22:22.601Z,97.10
2018-08-31T09:24:51.568Z,96.90
2018-08-31T09:27:20.350Z,96.60
2018-08-31T09:29:48.782Z,97.30
2018-08-31T09:32:24.118Z,96.90
2018-08-31T09:34:53.728Z,97.30
2018-08-31T09:37:22.836Z,97.40
2018-08-31T09:39:51.476Z,97.70
2018-08-31T09:42:20.313Z,96.90
2018-08-31T09:44:48.804Z,96.30
2018-08-31T09:47:17.626Z,96.70
2018-08-31T09:49:47.021Z,96.90
2018-08-31T09:52:17.184Z,96.90
2018-08-31T09:54:46.397Z,96.60
2018-08-31T09:57:14.875Z,96.30
2018-08-31T09:59:44.053Z,96.10
2018-08-31T10:02:18.423Z,95.80
2018-08-31T10:04:47.596Z,95.70
2018-08-31T10:07:17.613Z,95.40
2018-08-31T10:09:48.376Z,94.80
2018-08-31T10:12:17.473Z,95.20
2018-08-31T10:14:46.288Z,95.00
2018-08-31T10:17:15.441Z,94.40
2018-08-31T10:19:44.207Z,93.60
2018-08-31T10:22:13.345Z,93.00
2018-08-31T10:24:42.109Z,92.60
2018-08-31T10:27:10.897Z,91.30
2018-08-31T10:29:40.031Z,91.20
2018-08-31T10:32:09.145Z,91.50
2018-08-31T10:34:38.240Z,91.30
2018-08-31T10:37:06.709Z,91.70
2018-08-31T10:39:35.181Z,91.20
2018-08-31T10:42:03.606Z,89.30
2018-08-31T10:44:32.406Z,90.20
2018-08-31T10:47:01.177Z,90.30
2018-08-31T10:49:30.182Z,88.10
2018-08-31T10:51:58.640Z,89.10
2018-08-31T10:54:27.674Z,90.00
2018-08-31T10:56:56.110Z,89.80
2018-08-31T10:59:25.215Z,88.20
2018-08-31T11:01:54.319Z,87.20
2018-08-31T11:04:23.079Z,87.40
2018-08-31T11:06:51.539Z,83.00
2018-08-31T11:09:20.000Z,82.30
2018-08-31T11:11:49.125Z,82.90
2018-08-31T11:14:17.886Z,82.10
2018-08-31T11:16:46.642Z,80.30
2018-08-31T11:19:15.474Z,82.20
2018-08-31T11:21:44.246Z,81.40
2018-08-31T11:24:13.471Z,80.60
2018-08-31T11:26:42.306Z,81.20
2018-08-31T11:29:11.084Z,81.10
2018-08-31T11:31:39.887Z,79.60
2018-08-31T11:34:08.654Z,79.60
2018-08-31T11:36:37.438Z,80.40
2018-08-31T11:39:08.949Z,76.10
2018-08-31T11:41:38.072Z,74.70
2018-08-31T11:44:07.149Z,75.50
2018-08-31T11:46:36.330Z,75.80
2018-08-31T11:49:04.916Z,76.30
2018-08-31T11:51:34.383Z,75.30
2018-08-31T11:54:03.519Z,75.70
2018-08-31T11:56:32.268Z,75.20
2018-08-31T11:59:01.691Z,74.40
2018-08-31T12:01:31.197Z,72.50
2018-08-31T12:04:00.512Z,72.90
2018-08-31T12:06:29.148Z,73.10
2018-08-31T12:08:58.183Z,72.70
2018-08-31T12:11:27.066Z,69.20
2018-08-31T12:13:55.658Z,71.80
2018-08-31T12:16:24.140Z,71.70
2018-08-31T12:18:53.444Z,71.40
2018-08-31T12:21:22.594Z,68.70
2018-08-31T12:23:51.422Z,70.20
2018-08-31T12:26:21.022Z,69.50
2018-08-31T12:28:51.063Z,70.60
2018-08-31T12:31:20.604Z,68.30
2018-08-31T12:33:51.049Z,69.00
2018-08-31T12:38:54.613Z,67.30
2018-08-31T12:41:23.730Z,66.60
2018-08-31T12:43:53.134Z,65.40
2018-08-31T12:46:22.222Z,65.90
2018-08-31T12:48:51.292Z,65.80
2018-08-31T12:51:19.906Z,65.00
2018-08-31T12:53:48.756Z,66.20
2018-08-31T12:56:17.572Z,65.30
2018-08-31T12:58:46.988Z,65.20
2018-08-31T13:01:17.046Z,64.10
2018-08-31T13:03:46.455Z,63.70
2018-08-31T13:06:15.228Z,64.10
2018-08-31T13:08:43.702Z,64.70
2018-08-31T13:11:12.183Z,64.20
2018-08-31T13:13:40.832Z,65.00
2018-08-31T13:16:10.921Z,65.00
2018-08-31T13:18:39.764Z,65.00
2018-08-31T13:21:08.601Z,65.90
2018-08-31T13:23:37.173Z,66.60
2018-08-31T13:26:06.280Z,66.90
2018-08-31T13:28:35.920Z,67.90
2018-08-31T13:31:06.965Z,67.30
2018-08-31T13:33:35.573Z,67.60
2018-08-31T13:36:04.362Z,68.00
2018-08-31T13:38:33.474Z,67.70
2018-08-31T13:41:03.153Z,67.90
2018-08-31T13:43:32.359Z,67.10
2018-08-31T13:46:01.193Z,68.30
2018-08-31T13:48:30.293Z,67.80
2018-08-31T13:51:00.174Z,68.30
2018-08-31T13:53:29.263Z,67.60
2018-08-31T13:55:58.392Z,67.10
2018-08-31T13:58:27.877Z,66.50
2018-08-31T14:00:56.446Z,67.50
2018-08-31T14:03:24.937Z,67.50
2018-08-31T14:05:54.108Z,67.30
2018-08-31T14:08:22.545Z,66.10
2018-08-31T14:10:51.000Z,66.70
2018-08-31T14:13:19.779Z,65.50
2018-08-31T14:15:48.587Z,65.60
2018-08-31T14:18:17.137Z,65.80
2018-08-31T14:20:45.892Z,65.90
2018-08-31T14:23:14.372Z,67.70
2018-08-31T14:25:43.217Z,68.20
2018-08-31T14:28:12.142Z,66.70
2018-08-31T14:30:43.702Z,67.40
2018-08-31T14:33:17.533Z,68.40
2018-08-31T14:38:38.435Z,67.50
2018-08-31T14:41:09.037Z,68.40
2018-08-31T14:43:40.088Z,68.90
2018-08-31T14:46:16.391Z,69.00
2018-08-31T14:48:47.420Z,68.60
2018-08-31T14:51:17.229Z,68.80
2018-08-31T14:53:49.410Z,69.30
2018-08-31T14:56:20.537Z,69.80
2018-08-31T14:58:50.427Z,69.40
2018-08-31T15:04:01.373Z,69.30
2018-08-31T15:06:30.346Z,68.70
2018-08-31T15:08:58.989Z,69.10
2018-08-31T15:11:30.685Z,69.20
2018-08-31T15:14:00.959Z,69.00
2018-08-31T15:16:30.872Z,68.90
2018-08-31T15:19:01.404Z,69.50
2018-08-31T15:21:36.784Z,69.60
2018-08-31T15:24:08.927Z,69.00
2018-08-31T15:26:40.591Z,69.10
2018-08-31T15:29:14.644Z,69.50
2018-08-31T15:31:47.970Z,70.20
2018-08-31T15:34:32.781Z,69.50
2018-08-31T15:40:05.307Z,69.50
2018-08-31T15:42:35.756Z,70.00
2018-08-31T15:45:09.163Z,70.60
2018-08-31T15:47:42.486Z,70.70
2018-08-31T15:55:05.496Z,70.90
2018-08-31T15:57:43.681Z,71.20
2018-08-31T16:00:18.576Z,70.80
2018-08-31T16:02:49.145Z,71.00
2018-08-31T16:05:20.092Z,71.20
2018-08-31T16:07:59.135Z,71.40
2018-08-31T16:10:52.660Z,71.70
2018-08-31T16:20:19.164Z,70.60
2018-08-31T16:26:50.428Z,70.00
2018-08-31T16:31:56.836Z,70.30
2018-08-31T16:34:57.649Z,70.30
2018-08-31T16:43:20.457Z,71.40
2018-08-31T16:45:49.418Z,71.40
2018-08-31T16:48:17.959Z,71.60
2018-08-31T16:50:46.614Z,72.10
2018-08-31T16:53:16.775Z,72.20
2018-08-31T16:55:45.500Z,72.00
2018-08-31T16:58:14.102Z,72.40
2018-08-31T17:00:43.019Z,72.00
2018-08-31T17:03:12.573Z,71.70
2018-08-31T17:05:41.462Z,72.00
2018-08-31T17:08:10.521Z,72.10
2018-08-31T17:10:40.318Z,71.70
2018-08-31T17:13:10.690Z,71.00
2018-08-31T17:15:40.278Z,71.30
2018-08-31T17:18:09.883Z,71.50
2018-08-31T17:20:39.944Z,71.00
2018-08-31T17:23:08.525Z,71.30
2018-08-31T17:25:37.962Z,71.60
2018-08-31T17:28:12.500Z,71.50
2018-08-31T17:30:41.565Z,71.20
2018-08-31T17:33:20.393Z,71.40
2018-08-31T17:36:00.742Z,72.40
2018-08-31T17:38:30.210Z,72.20
2018-08-31T17:41:00.465Z,72.50
2018-08-31T17:43:32.571Z,72.30
2018-08-31T17:46:04.590Z,72.40
2018-08-31T17:48:33.577Z,72.00
2018-08-31T17:51:03.341Z,72.10
2018-08-31T17:53:33.824Z,71.90
2018-08-31T17:56:03.910Z,71.80
2018-08-31T17:58:34.251Z,72.30
2018-08-31T18:01:06.570Z,71.60
2018-08-31T18:03:35.386Z,72.00
2018-08-31T18:06:04.490Z,72.30
2018-08-31T18:08:32.928Z,72.60
2018-08-31T18:11:02.388Z,73.10
2018-08-31T18:13:30.925Z,73.20
2018-08-31T18:15:59.573Z,73.50
2018-08-31T18:18:30.181Z,73.50
2018-08-31T18:20:59.333Z,73.80
2018-08-31T18:23:27.919Z,73.90
2018-08-31T18:25:57.132Z,73.80
2018-08-31T18:28:26.035Z,73.90
2018-08-31T18:30:55.181Z,73.90
2018-08-31T18:33:24.017Z,74.30
2018-08-31T18:35:52.886Z,74.50
2018-08-31T18:38:22.363Z,74.10
2018-08-31T18:40:51.246Z,74.10
2018-08-31T18:43:20.529Z,74.30
2018-08-31T18:45:49.232Z,73.70
2018-08-31T18:48:17.695Z,73.70
2018-08-31T18:50:46.540Z,73.90
2018-08-31T18:53:15.015Z,75.20
2018-08-31T18:55:43.466Z,75.20
2018-08-31T18:58:11.918Z,76.10
2018-08-31T19:00:41.737Z,76.70
2018-08-31T19:03:10.256Z,77.10
2018-08-31T19:05:38.728Z,77.20
2018-08-31T19:08:08.819Z,77.60
2018-08-31T19:10:37.958Z,77.80
2018-08-31T19:13:07.095Z,78.10
2018-08-31T19:15:36.209Z,78.30
2018-08-31T19:18:06.641Z,78.60
2018-08-31T19:20:35.105Z,79.10
2018-08-31T19:23:04.873Z,79.20
2018-08-31T19:25:33.684Z,79.60
2018-08-31T19:28:02.464Z,79.90
2018-08-31T19:30:31.253Z,80.10
2018-08-31T19:32:59.770Z,80.50
2018-08-31T19:35:28.275Z,80.60
2018-08-31T19:37:57.244Z,80.70
2018-08-31T19:40:26.024Z,80.90
2018-08-31T19:42:54.817Z,81.00
2018-08-31T19:45:23.814Z,81.20
2018-08-31T19:47:52.298Z,81.50
2018-08-31T19:50:21.079Z,81.60
2018-08-31T19:52:49.509Z,81.90
2018-08-31T19:55:17.953Z,82.20
2018-08-31T19:57:46.419Z,82.20
2018-08-31T20:00:14.870Z,82.20
2018-08-31T20:02:43.387Z,82.70
2018-08-31T20:05:12.577Z,83.10
2018-08-31T20:07:41.372Z,83.30
2018-08-31T20:10:10.324Z,83.30
2018-08-31T20:12:38.761Z,83.40
2018-08-31T20:15:07.222Z,82.90
2018-08-31T20:17:35.656Z,83.60
2018-08-31T20:20:04.437Z,84.10
2018-08-31T20:22:33.239Z,83.50
2018-08-31T20:25:02.335Z,83.60
2018-08-31T20:27:31.120Z,83.60
2018-08-31T20:30:00.051Z,83.80
2018-08-31T20:32:28.868Z,83.90
2018-08-31T20:34:57.759Z,84.30
2018-08-31T20:37:26.592Z,84.90
2018-08-31T20:39:55.721Z,85.40
2018-08-31T20:42:25.953Z,85.90
2018-08-31T20:44:54.424Z,86.30
2018-08-31T20:47:23.754Z,86.50
2018-08-31T20:49:52.687Z,87.10
2018-08-31T20:52:21.157Z,86.80
2018-08-31T20:54:49.595Z,86.70
2018-08-31T20:57:18.310Z,86.70
2018-08-31T20:59:47.098Z,86.50
2018-08-31T21:02:15.907Z,86.10
2018-08-31T21:04:44.409Z,85.90
2018-08-31T21:07:12.929Z,86.50
2018-08-31T21:09:41.388Z,86.70
2018-08-31T21:12:15.837Z,86.70
2018-08-31T21:14:44.685Z,86.70
2018-08-31T21:17:13.912Z,86.60
2018-08-31T21:19:45.771Z,86.20
2018-08-31T21:22:15.135Z,86.90
2018-08-31T21:24:46.410Z,87.00
2018-08-31T21:27:15.441Z,86.40
2018-08-31T21:29:44.276Z,87.00
2018-08-31T21:32:13.379Z,86.90
2018-08-31T21:34:42.401Z,86.70
2018-08-31T21:37:12.152Z,86.70
2018-08-31T21:39:40.792Z,87.00
2018-08-31T21:42:09.803Z,86.70
2018-08-31T21:44:40.084Z,86.90
2018-08-31T21:47:09.130Z,87.10
2018-08-31T21:49:42.289Z,87.10
2018-08-31T21:52:11.715Z,87.50
2018-08-31T21:54:40.952Z,87.70
2018-08-31T21:57:10.687Z,87.80
2018-08-31T21:59:40.149Z,87.80
2018-08-31T22:04:48.983Z,87.20
2018-08-31T22:07:18.302Z,87.00
2018-08-31T22:09:47.002Z,86.70
2018-08-31T22:12:16.917Z,86.70
2018-08-31T22:14:46.735Z,87.00
2018-08-31T22:17:15.390Z,87.30
2018-08-31T22:19:44.059Z,87.40
2018-08-31T22:22:13.463Z,87.60
2018-08-31T22:24:43.416Z,87.50
2018-08-31T22:27:12.374Z,87.70
2018-08-31T22:29:41.606Z,87.70
2018-08-31T22:32:14.042Z,87.80
2018-08-31T22:34:43.431Z,87.50
2018-08-31T22:37:12.390Z,87.20
2018-08-31T22:39:41.064Z,87.10
2018-08-31T22:42:10.781Z,87.40
2018-08-31T22:44:42.037Z,87.50
2018-08-31T22:47:10.793Z,87.70
2018-08-31T22:49:40.280Z,88.00
2018-08-31T22:52:09.148Z,88.20
2018-08-31T22:54:38.068Z,88.80
2018-08-31T22:57:06.792Z,89.40
2018-08-31T22:59:35.356Z,90.10
2018-08-31T23:02:05.372Z,90.20
2018-08-31T23:04:35.397Z,90.30
2018-08-31T23:07:04.150Z,90.40
2018-08-31T23:09:32.845Z,90.20
2018-08-31T23:12:02.119Z,90.20
2018-08-31T23:14:30.880Z,90.10
2018-08-31T23:17:14.570Z,90.00
2018-08-31T23:19:43.493Z,89.60
2018-08-31T23:22:15.717Z,89.50
2018-08-31T23:27:34.497Z,87.60
2018-08-31T23:30:03.218Z,87.20
2018-08-31T23:32:31.905Z,87.20
2018-08-31T23:35:01.616Z,87.50
2018-08-31T23:37:30.199Z,87.10
2018-08-31T23:39:59.204Z,86.60
2018-08-31T23:42:27.930Z,86.60
2018-08-31T23:44:57.650Z,87.50
2018-08-31T23:47:26.719Z,88.10
2018-08-31T23:49:57.267Z,88.70
2018-08-31T23:52:25.938Z,89.40
2018-08-31T23:54:55.153Z,90.00
2018-08-31T23:57:24.091Z,90.10
2018-08-31T23:59:53.071Z,90.30
